sensor_id;sensor_type;location;lat;lon;timestamp;temperature;humidity
19892;DHT22;10108;50.142;8.724;2023-05-10T00:01:49;15.00;99.90
19892;DHT22;10108;50.142;8.724;2023-05-10T00:04:15;14.90;99.90
19892;DHT22;10108;50.142;8.724;2023-05-10T00:06:42;14.80;99.90
19892;DHT22;10108;50.142;8.724;2023-05-10T00:09:08;14.70;99.90
19892;DHT22;10108;50.142;8.724;2023-05-10T00:11:34;14.70;99.90
19892;DHT22;10108;50.142;8.724;2023-05-10T00:14:00;14.60;99.90
19892;DHT22;10108;50.142;8.724;2023-05-10T00:16:26;14.60;99.90
19892;DHT22;10108;50.142;8.724;2023-05-10T00:18:53;14.50;99.90
19892;DHT22;10108;50.142;8.724;2023-05-10T00:21:19;14.50;99.90
19892;DHT22;10108;50.142;8.724;2023-05-10T00:23:45;14.50;99.90
19892;DHT22;10108;50.142;8.724;2023-05-10T00:26:11;14.50;99.90
19892;DHT22;10108;50.142;8.724;2023-05-10T00:28:38;14.50;99.90
19892;DHT22;10108;50.142;8.724;2023-05-10T00:31:04;14.50;99.90
19892;DHT22;10108;50.142;8.724;2023-05-10T00:33:30;14.50;99.90
19892;DHT22;10108;50.142;8.724;2023-05-10T00:35:56;14.50;99.90
19892;DHT22;10108;50.142;8.724;2023-05-10T00:38:22;14.50;99.90
19892;DHT22;10108;50.142;8.724;2023-05-10T00:40:49;14.60;99.90
19892;DHT22;10108;50.142;8.724;2023-05-10T00:43:23;14.60;99.90
19892;DHT22;10108;50.142;8.724;2023-05-10T00:45:49;14.50;99.90
19892;DHT22;10108;50.142;8.724;2023-05-10T00:48:16;14.50;99.90
19892;DHT22;10108;50.142;8.724;2023-05-10T00:50:44;14.60;99.90
19892;DHT22;10108;50.142;8.724;2023-05-10T00:53:10;14.60;99.90
19892;DHT22;10108;50.142;8.724;2023-05-10T00:55:37;14.60;99.90
19892;DHT22;10108;50.142;8.724;2023-05-10T00:58:04;14.60;99.90
19892;DHT22;10108;50.142;8.724;2023-05-10T01:00:32;14.60;99.90
19892;DHT22;10108;50.142;8.724;2023-05-10T01:02:59;14.50;99.90
19892;DHT22;10108;50.142;8.724;2023-05-10T01:05:25;14.50;99.90
19892;DHT22;10108;50.142;8.724;2023-05-10T01:07:53;14.50;99.90
19892;DHT22;10108;50.142;8.724;2023-05-10T01:10:19;14.50;99.90
19892;DHT22;10108;50.142;8.724;2023-05-10T01:12:46;14.50;99.90
19892;DHT22;10108;50.142;8.724;2023-05-10T01:15:15;14.50;99.90
19892;DHT22;10108;50.142;8.724;2023-05-10T01:17:45;14.50;99.90
19892;DHT22;10108;50.142;8.724;2023-05-10T01:20:12;14.50;99.90
19892;DHT22;10108;50.142;8.724;2023-05-10T01:25:54;14.40;99.90
19892;DHT22;10108;50.142;8.724;2023-05-10T01:39:11;14.30;99.90
19892;DHT22;10108;50.142;8.724;2023-05-10T01:41:49;14.30;99.90
19892;DHT22;10108;50.142;8.724;2023-05-10T01:44:39;14.30;99.90
19892;DHT22;10108;50.142;8.724;2023-05-10T01:47:10;14.30;99.90
19892;DHT22;10108;50.142;8.724;2023-05-10T01:49:41;14.10;99.90
19892;DHT22;10108;50.142;8.724;2023-05-10T01:52:15;14.10;99.90
19892;DHT22;10108;50.142;8.724;2023-05-10T01:54:50;14.10;99.90
19892;DHT22;10108;50.142;8.724;2023-05-10T01:57:20;14.10;99.90
19892;DHT22;10108;50.142;8.724;2023-05-10T01:59:50;14.20;99.90
19892;DHT22;10108;50.142;8.724;2023-05-10T02:02:18;14.20;99.90
19892;DHT22;10108;50.142;8.724;2023-05-10T02:04:46;14.10;99.90
19892;DHT22;10108;50.142;8.724;2023-05-10T02:07:14;14.10;99.90
19892;DHT22;10108;50.142;8.724;2023-05-10T02:09:42;14.10;99.90
19892;DHT22;10108;50.142;8.724;2023-05-10T02:12:13;14.10;99.90
19892;DHT22;10108;50.142;8.724;2023-05-10T02:14:41;14.10;99.90
19892;DHT22;10108;50.142;8.724;2023-05-10T02:17:08;14.20;99.90
19892;DHT22;10108;50.142;8.724;2023-05-10T02:19:36;14.20;99.90
19892;DHT22;10108;50.142;8.724;2023-05-10T02:22:03;14.20;99.90
19892;DHT22;10108;50.142;8.724;2023-05-10T02:24:33;14.30;99.90
19892;DHT22;10108;50.142;8.724;2023-05-10T02:27:02;14.20;99.90
19892;DHT22;10108;50.142;8.724;2023-05-10T02:29:31;14.30;99.90
19892;DHT22;10108;50.142;8.724;2023-05-10T02:31:58;14.30;99.90
19892;DHT22;10108;50.142;8.724;2023-05-10T02:34:26;14.40;99.90
19892;DHT22;10108;50.142;8.724;2023-05-10T02:36:53;14.30;99.90
19892;DHT22;10108;50.142;8.724;2023-05-10T02:39:21;14.40;99.90
19892;DHT22;10108;50.142;8.724;2023-05-10T02:41:49;14.40;99.90
19892;DHT22;10108;50.142;8.724;2023-05-10T02:44:18;14.40;99.90
19892;DHT22;10108;50.142;8.724;2023-05-10T02:46:46;14.40;99.90
19892;DHT22;10108;50.142;8.724;2023-05-10T02:49:13;14.40;99.90
19892;DHT22;10108;50.142;8.724;2023-05-10T02:51:42;14.40;99.90
19892;DHT22;10108;50.142;8.724;2023-05-10T02:54:12;14.40;99.90
19892;DHT22;10108;50.142;8.724;2023-05-10T02:56:47;14.40;99.90
19892;DHT22;10108;50.142;8.724;2023-05-10T02:59:16;14.40;99.90
19892;DHT22;10108;50.142;8.724;2023-05-10T03:01:42;14.40;99.90
19892;DHT22;10108;50.142;8.724;2023-05-10T03:04:08;14.40;99.90
19892;DHT22;10108;50.142;8.724;2023-05-10T03:06:35;14.40;99.90
19892;DHT22;10108;50.142;8.724;2023-05-10T03:09:03;14.40;99.90
19892;DHT22;10108;50.142;8.724;2023-05-10T03:14:50;14.40;99.90
19892;DHT22;10108;50.142;8.724;2023-05-10T03:17:25;14.40;99.90
19892;DHT22;10108;50.142;8.724;2023-05-10T03:19:57;14.40;99.90
19892;DHT22;10108;50.142;8.724;2023-05-10T03:22:32;14.40;99.90
19892;DHT22;10108;50.142;8.724;2023-05-10T03:25:05;14.40;99.90
19892;DHT22;10108;50.142;8.724;2023-05-10T03:27:32;14.30;99.90
19892;DHT22;10108;50.142;8.724;2023-05-10T03:30:01;14.30;99.90
19892;DHT22;10108;50.142;8.724;2023-05-10T03:32:30;14.30;99.90
19892;DHT22;10108;50.142;8.724;2023-05-10T03:34:58;14.30;99.90
19892;DHT22;10108;50.142;8.724;2023-05-10T03:37:25;14.30;99.90
19892;DHT22;10108;50.142;8.724;2023-05-10T03:39:51;14.30;99.90
19892;DHT22;10108;50.142;8.724;2023-05-10T03:42:17;14.30;99.90
19892;DHT22;10108;50.142;8.724;2023-05-10T03:44:44;14.30;99.90
19892;DHT22;10108;50.142;8.724;2023-05-10T03:47:10;14.20;99.90
19892;DHT22;10108;50.142;8.724;2023-05-10T03:49:36;14.30;99.90
19892;DHT22;10108;50.142;8.724;2023-05-10T03:52:03;14.20;99.90
19892;DHT22;10108;50.142;8.724;2023-05-10T03:54:29;14.20;99.90
19892;DHT22;10108;50.142;8.724;2023-05-10T03:56:55;14.20;99.90
19892;DHT22;10108;50.142;8.724;2023-05-10T03:59:22;14.20;99.90
19892;DHT22;10108;50.142;8.724;2023-05-10T04:01:48;14.30;99.90
19892;DHT22;10108;50.142;8.724;2023-05-10T04:04:14;14.30;99.90
19892;DHT22;10108;50.142;8.724;2023-05-10T04:06:40;14.30;99.90
19892;DHT22;10108;50.142;8.724;2023-05-10T04:09:06;14.30;99.90
19892;DHT22;10108;50.142;8.724;2023-05-10T04:11:32;14.30;99.90
19892;DHT22;10108;50.142;8.724;2023-05-10T04:13:58;14.30;99.90
19892;DHT22;10108;50.142;8.724;2023-05-10T04:16:24;14.30;99.90
19892;DHT22;10108;50.142;8.724;2023-05-10T04:18:50;14.30;99.90
19892;DHT22;10108;50.142;8.724;2023-05-10T04:21:17;14.30;99.90
19892;DHT22;10108;50.142;8.724;2023-05-10T04:23:43;14.30;99.90
19892;DHT22;10108;50.142;8.724;2023-05-10T04:26:09;14.30;99.90
19892;DHT22;10108;50.142;8.724;2023-05-10T04:28:35;14.30;99.90
19892;DHT22;10108;50.142;8.724;2023-05-10T04:31:06;14.30;99.90
19892;DHT22;10108;50.142;8.724;2023-05-10T04:33:33;14.30;99.90
19892;DHT22;10108;50.142;8.724;2023-05-10T04:35:59;14.30;99.90
19892;DHT22;10108;50.142;8.724;2023-05-10T04:38:26;14.30;99.90
19892;DHT22;10108;50.142;8.724;2023-05-10T04:40:53;14.30;99.90
19892;DHT22;10108;50.142;8.724;2023-05-10T04:43:19;14.30;99.90
19892;DHT22;10108;50.142;8.724;2023-05-10T04:45:46;14.30;99.90
19892;DHT22;10108;50.142;8.724;2023-05-10T04:48:12;14.20;99.90
19892;DHT22;10108;50.142;8.724;2023-05-10T04:50:39;14.30;99.90
19892;DHT22;10108;50.142;8.724;2023-05-10T04:53:06;14.30;99.90
19892;DHT22;10108;50.142;8.724;2023-05-10T04:55:32;14.40;99.90
19892;DHT22;10108;50.142;8.724;2023-05-10T04:57:58;14.40;99.90
19892;DHT22;10108;50.142;8.724;2023-05-10T05:00:24;14.40;99.90
19892;DHT22;10108;50.142;8.724;2023-05-10T05:02:51;14.50;99.90
19892;DHT22;10108;50.142;8.724;2023-05-10T05:05:17;14.50;99.90
19892;DHT22;10108;50.142;8.724;2023-05-10T05:07:43;14.50;99.90
19892;DHT22;10108;50.142;8.724;2023-05-10T05:10:09;14.50;99.90
19892;DHT22;10108;50.142;8.724;2023-05-10T05:12:35;14.50;99.90
19892;DHT22;10108;50.142;8.724;2023-05-10T05:15:02;14.50;99.90
19892;DHT22;10108;50.142;8.724;2023-05-10T05:17:30;14.50;99.90
19892;DHT22;10108;50.142;8.724;2023-05-10T05:19:57;14.50;99.90
19892;DHT22;10108;50.142;8.724;2023-05-10T05:22:23;14.50;99.90
19892;DHT22;10108;50.142;8.724;2023-05-10T05:24:54;14.50;99.90
19892;DHT22;10108;50.142;8.724;2023-05-10T05:27:20;14.50;99.90
19892;DHT22;10108;50.142;8.724;2023-05-10T05:29:53;14.50;99.90
19892;DHT22;10108;50.142;8.724;2023-05-10T05:32:20;14.60;99.90
19892;DHT22;10108;50.142;8.724;2023-05-10T05:34:46;14.60;99.90
19892;DHT22;10108;50.142;8.724;2023-05-10T05:37:13;14.60;99.90
19892;DHT22;10108;50.142;8.724;2023-05-10T05:39:40;14.60;99.90
19892;DHT22;10108;50.142;8.724;2023-05-10T05:42:06;14.60;99.90
19892;DHT22;10108;50.142;8.724;2023-05-10T05:44:32;14.60;99.90
19892;DHT22;10108;50.142;8.724;2023-05-10T05:46:59;14.60;99.90
19892;DHT22;10108;50.142;8.724;2023-05-10T05:49:25;14.60;99.90
19892;DHT22;10108;50.142;8.724;2023-05-10T05:51:51;14.60;99.90
19892;DHT22;10108;50.142;8.724;2023-05-10T05:54:17;14.60;99.90
19892;DHT22;10108;50.142;8.724;2023-05-10T05:56:43;14.60;99.90
19892;DHT22;10108;50.142;8.724;2023-05-10T05:59:13;14.60;99.90
19892;DHT22;10108;50.142;8.724;2023-05-10T06:01:39;14.70;99.90
19892;DHT22;10108;50.142;8.724;2023-05-10T06:04:05;14.70;99.90
19892;DHT22;10108;50.142;8.724;2023-05-10T06:06:31;14.70;99.90
19892;DHT22;10108;50.142;8.724;2023-05-10T06:08:58;14.70;99.90
19892;DHT22;10108;50.142;8.724;2023-05-10T06:11:24;14.70;99.90
19892;DHT22;10108;50.142;8.724;2023-05-10T06:13:51;14.70;99.90
19892;DHT22;10108;50.142;8.724;2023-05-10T06:16:17;14.70;99.90
19892;DHT22;10108;50.142;8.724;2023-05-10T06:18:43;14.80;99.90
19892;DHT22;10108;50.142;8.724;2023-05-10T06:21:09;14.80;99.90
19892;DHT22;10108;50.142;8.724;2023-05-10T06:23:35;14.80;99.90
19892;DHT22;10108;50.142;8.724;2023-05-10T06:26:02;14.80;99.90
19892;DHT22;10108;50.142;8.724;2023-05-10T06:28:28;14.80;99.90
19892;DHT22;10108;50.142;8.724;2023-05-10T06:30:57;14.80;99.90
19892;DHT22;10108;50.142;8.724;2023-05-10T06:33:23;14.80;99.90
19892;DHT22;10108;50.142;8.724;2023-05-10T06:35:49;14.80;99.90
19892;DHT22;10108;50.142;8.724;2023-05-10T06:38:15;14.90;99.90
19892;DHT22;10108;50.142;8.724;2023-05-10T06:40:42;14.90;99.90
19892;DHT22;10108;50.142;8.724;2023-05-10T06:43:08;14.90;99.90
19892;DHT22;10108;50.142;8.724;2023-05-10T06:45:34;14.90;99.90
19892;DHT22;10108;50.142;8.724;2023-05-10T06:48:01;14.90;99.90
19892;DHT22;10108;50.142;8.724;2023-05-10T06:50:27;14.90;99.90
19892;DHT22;10108;50.142;8.724;2023-05-10T06:52:53;15.00;99.90
19892;DHT22;10108;50.142;8.724;2023-05-10T06:55:20;15.00;99.90
19892;DHT22;10108;50.142;8.724;2023-05-10T06:57:46;15.00;99.90
19892;DHT22;10108;50.142;8.724;2023-05-10T07:00:13;15.00;99.90
19892;DHT22;10108;50.142;8.724;2023-05-10T07:02:40;15.00;99.90
19892;DHT22;10108;50.142;8.724;2023-05-10T07:05:06;15.00;99.90
19892;DHT22;10108;50.142;8.724;2023-05-10T07:07:32;15.10;99.90
19892;DHT22;10108;50.142;8.724;2023-05-10T07:09:58;15.10;99.90
19892;DHT22;10108;50.142;8.724;2023-05-10T07:12:24;15.10;99.90
19892;DHT22;10108;50.142;8.724;2023-05-10T07:14:51;15.20;99.90
19892;DHT22;10108;50.142;8.724;2023-05-10T07:17:17;15.20;99.90
19892;DHT22;10108;50.142;8.724;2023-05-10T07:19:43;15.20;99.90
19892;DHT22;10108;50.142;8.724;2023-05-10T07:22:09;15.30;99.90
19892;DHT22;10108;50.142;8.724;2023-05-10T07:24:36;15.30;99.90
19892;DHT22;10108;50.142;8.724;2023-05-10T07:27:02;15.30;99.90
19892;DHT22;10108;50.142;8.724;2023-05-10T07:29:28;15.30;99.90
19892;DHT22;10108;50.142;8.724;2023-05-10T07:31:54;15.40;99.90
19892;DHT22;10108;50.142;8.724;2023-05-10T07:34:20;15.30;99.90
19892;DHT22;10108;50.142;8.724;2023-05-10T07:36:47;15.30;99.90
19892;DHT22;10108;50.142;8.724;2023-05-10T07:39:13;15.30;99.90
19892;DHT22;10108;50.142;8.724;2023-05-10T07:41:39;15.30;99.90
19892;DHT22;10108;50.142;8.724;2023-05-10T07:44:06;15.30;99.90
19892;DHT22;10108;50.142;8.724;2023-05-10T07:46:32;15.30;99.90
19892;DHT22;10108;50.142;8.724;2023-05-10T07:48:58;15.40;99.90
19892;DHT22;10108;50.142;8.724;2023-05-10T07:51:24;15.40;99.90
19892;DHT22;10108;50.142;8.724;2023-05-10T07:53:50;15.40;99.90
19892;DHT22;10108;50.142;8.724;2023-05-10T07:58:48;15.40;99.90
19892;DHT22;10108;50.142;8.724;2023-05-10T08:01:15;15.30;99.90
19892;DHT22;10108;50.142;8.724;2023-05-10T08:03:41;15.20;99.90
19892;DHT22;10108;50.142;8.724;2023-05-10T08:06:07;15.20;99.90
19892;DHT22;10108;50.142;8.724;2023-05-10T08:08:33;15.30;99.90
19892;DHT22;10108;50.142;8.724;2023-05-10T08:10:59;15.40;99.90
19892;DHT22;10108;50.142;8.724;2023-05-10T08:13:25;15.50;99.90
19892;DHT22;10108;50.142;8.724;2023-05-10T08:15:51;15.50;99.90
19892;DHT22;10108;50.142;8.724;2023-05-10T08:18:19;15.60;99.90
19892;DHT22;10108;50.142;8.724;2023-05-10T08:20:45;15.70;99.90
19892;DHT22;10108;50.142;8.724;2023-05-10T08:23:14;15.70;99.90
19892;DHT22;10108;50.142;8.724;2023-05-10T08:25:40;15.80;99.90
19892;DHT22;10108;50.142;8.724;2023-05-10T08:28:06;15.80;99.90
19892;DHT22;10108;50.142;8.724;2023-05-10T08:30:33;15.90;99.90
19892;DHT22;10108;50.142;8.724;2023-05-10T08:32:59;15.90;99.90
19892;DHT22;10108;50.142;8.724;2023-05-10T08:35:25;16.00;99.90
19892;DHT22;10108;50.142;8.724;2023-05-10T08:37:51;16.00;99.90
19892;DHT22;10108;50.142;8.724;2023-05-10T08:40:19;16.00;99.90
19892;DHT22;10108;50.142;8.724;2023-05-10T08:42:59;16.00;99.90
19892;DHT22;10108;50.142;8.724;2023-05-10T08:45:31;16.10;99.90
19892;DHT22;10108;50.142;8.724;2023-05-10T08:48:01;16.10;99.90
19892;DHT22;10108;50.142;8.724;2023-05-10T08:50:27;16.20;99.90
19892;DHT22;10108;50.142;8.724;2023-05-10T08:52:59;16.20;99.90
19892;DHT22;10108;50.142;8.724;2023-05-10T08:55:26;16.20;99.90
19892;DHT22;10108;50.142;8.724;2023-05-10T08:57:53;16.20;99.90
19892;DHT22;10108;50.142;8.724;2023-05-10T09:00:20;16.20;99.90
19892;DHT22;10108;50.142;8.724;2023-05-10T09:02:49;16.20;99.90
19892;DHT22;10108;50.142;8.724;2023-05-10T09:05:16;16.20;99.90
19892;DHT22;10108;50.142;8.724;2023-05-10T09:07:43;16.20;99.90
19892;DHT22;10108;50.142;8.724;2023-05-10T09:10:11;16.20;99.90
19892;DHT22;10108;50.142;8.724;2023-05-10T09:12:37;16.20;99.90
19892;DHT22;10108;50.142;8.724;2023-05-10T09:15:05;16.10;99.90
19892;DHT22;10108;50.142;8.724;2023-05-10T09:17:33;16.10;99.90
19892;DHT22;10108;50.142;8.724;2023-05-10T09:20:00;16.00;99.90
19892;DHT22;10108;50.142;8.724;2023-05-10T09:22:27;15.80;99.90
19892;DHT22;10108;50.142;8.724;2023-05-10T09:25:15;15.60;99.90
19892;DHT22;10108;50.142;8.724;2023-05-10T09:27:46;15.50;99.90
19892;DHT22;10108;50.142;8.724;2023-05-10T09:30:29;15.50;99.90
19892;DHT22;10108;50.142;8.724;2023-05-10T09:32:56;15.50;99.90
19892;DHT22;10108;50.142;8.724;2023-05-10T09:35:25;15.40;99.90
19892;DHT22;10108;50.142;8.724;2023-05-10T09:37:53;15.30;99.90
19892;DHT22;10108;50.142;8.724;2023-05-10T09:40:21;15.30;99.90
19892;DHT22;10108;50.142;8.724;2023-05-10T09:42:58;15.20;99.90
19892;DHT22;10108;50.142;8.724;2023-05-10T09:45:29;15.10;99.90
19892;DHT22;10108;50.142;8.724;2023-05-10T09:47:56;15.10;99.90
19892;DHT22;10108;50.142;8.724;2023-05-10T09:50:23;15.10;99.90
19892;DHT22;10108;50.142;8.724;2023-05-10T09:52:51;15.10;99.90
19892;DHT22;10108;50.142;8.724;2023-05-10T09:55:22;15.10;99.90
19892;DHT22;10108;50.142;8.724;2023-05-10T09:57:49;15.10;99.90
19892;DHT22;10108;50.142;8.724;2023-05-10T10:00:24;15.20;99.90
19892;DHT22;10108;50.142;8.724;2023-05-10T10:02:57;15.30;99.90
19892;DHT22;10108;50.142;8.724;2023-05-10T10:05:31;15.40;99.90
19892;DHT22;10108;50.142;8.724;2023-05-10T10:07:59;15.50;99.90
19892;DHT22;10108;50.142;8.724;2023-05-10T10:10:26;15.60;99.90
19892;DHT22;10108;50.142;8.724;2023-05-10T10:12:54;15.80;99.90
19892;DHT22;10108;50.142;8.724;2023-05-10T10:15:21;15.80;99.90
19892;DHT22;10108;50.142;8.724;2023-05-10T10:17:49;15.90;99.90
19892;DHT22;10108;50.142;8.724;2023-05-10T10:20:16;15.90;99.90
19892;DHT22;10108;50.142;8.724;2023-05-10T10:22:42;15.90;99.90
19892;DHT22;10108;50.142;8.724;2023-05-10T10:25:17;15.80;99.90
19892;DHT22;10108;50.142;8.724;2023-05-10T10:30:25;15.80;99.90
19892;DHT22;10108;50.142;8.724;2023-05-10T10:36:03;15.70;99.90
19892;DHT22;10108;50.142;8.724;2023-05-10T10:41:33;15.70;99.90
19892;DHT22;10108;50.142;8.724;2023-05-10T10:52:24;15.70;99.90
19892;DHT22;10108;50.142;8.724;2023-05-10T11:00:30;15.70;99.90
19892;DHT22;10108;50.142;8.724;2023-05-10T11:08:30;15.70;99.90
19892;DHT22;10108;50.142;8.724;2023-05-10T11:13:39;15.50;99.90
19892;DHT22;10108;50.142;8.724;2023-05-10T11:16:20;15.50;99.90
19892;DHT22;10108;50.142;8.724;2023-05-10T11:18:58;15.50;99.90
19892;DHT22;10108;50.142;8.724;2023-05-10T11:21:24;15.50;99.90
19892;DHT22;10108;50.142;8.724;2023-05-10T11:23:53;15.60;99.90
19892;DHT22;10108;50.142;8.724;2023-05-10T11:26:33;15.60;99.90
19892;DHT22;10108;50.142;8.724;2023-05-10T11:29:00;15.70;99.90
19892;DHT22;10108;50.142;8.724;2023-05-10T11:31:28;15.70;99.90
19892;DHT22;10108;50.142;8.724;2023-05-10T11:33:56;15.80;99.90
19892;DHT22;10108;50.142;8.724;2023-05-10T11:36:34;15.90;99.90
19892;DHT22;10108;50.142;8.724;2023-05-10T11:39:00;16.00;99.90
19892;DHT22;10108;50.142;8.724;2023-05-10T11:41:28;16.00;99.90
19892;DHT22;10108;50.142;8.724;2023-05-10T11:43:57;16.10;99.90
19892;DHT22;10108;50.142;8.724;2023-05-10T11:46:25;16.20;99.90
19892;DHT22;10108;50.142;8.724;2023-05-10T11:49:02;16.20;99.90
19892;DHT22;10108;50.142;8.724;2023-05-10T11:51:34;16.30;99.90
19892;DHT22;10108;50.142;8.724;2023-05-10T11:54:05;16.30;99.90
19892;DHT22;10108;50.142;8.724;2023-05-10T11:56:32;16.40;99.90
19892;DHT22;10108;50.142;8.724;2023-05-10T11:58:59;16.40;99.90
19892;DHT22;10108;50.142;8.724;2023-05-10T12:01:28;16.50;99.90
19892;DHT22;10108;50.142;8.724;2023-05-10T12:03:56;16.40;99.90
19892;DHT22;10108;50.142;8.724;2023-05-10T12:06:29;16.50;99.90
19892;DHT22;10108;50.142;8.724;2023-05-10T12:08:57;16.40;99.90
19892;DHT22;10108;50.142;8.724;2023-05-10T12:11:28;16.30;99.90
19892;DHT22;10108;50.142;8.724;2023-05-10T12:13:55;16.30;99.90
19892;DHT22;10108;50.142;8.724;2023-05-10T12:16:24;16.20;99.90
19892;DHT22;10108;50.142;8.724;2023-05-10T12:18:52;16.10;99.90
19892;DHT22;10108;50.142;8.724;2023-05-10T12:21:20;16.10;99.90
19892;DHT22;10108;50.142;8.724;2023-05-10T12:26:14;15.90;99.90
19892;DHT22;10108;50.142;8.724;2023-05-10T12:28:40;15.90;99.90
19892;DHT22;10108;50.142;8.724;2023-05-10T12:31:07;15.90;99.90
19892;DHT22;10108;50.142;8.724;2023-05-10T12:33:41;15.90;99.90
19892;DHT22;10108;50.142;8.724;2023-05-10T12:36:09;16.00;99.90
19892;DHT22;10108;50.142;8.724;2023-05-10T12:38:38;16.00;99.90
19892;DHT22;10108;50.142;8.724;2023-05-10T12:41:09;16.10;99.90
19892;DHT22;10108;50.142;8.724;2023-05-10T12:43:36;16.20;99.90
19892;DHT22;10108;50.142;8.724;2023-05-10T12:48:31;16.50;99.90
19892;DHT22;10108;50.142;8.724;2023-05-10T12:51:08;16.50;99.90
19892;DHT22;10108;50.142;8.724;2023-05-10T12:53:35;16.60;99.90
19892;DHT22;10108;50.142;8.724;2023-05-10T12:56:02;16.70;99.90
19892;DHT22;10108;50.142;8.724;2023-05-10T12:58:28;16.70;99.90
19892;DHT22;10108;50.142;8.724;2023-05-10T13:00:55;16.70;99.90
19892;DHT22;10108;50.142;8.724;2023-05-10T13:03:22;16.80;99.90
19892;DHT22;10108;50.142;8.724;2023-05-10T13:05:48;16.80;99.90
19892;DHT22;10108;50.142;8.724;2023-05-10T13:08:15;16.80;99.90
19892;DHT22;10108;50.142;8.724;2023-05-10T13:10:41;16.90;99.90
19892;DHT22;10108;50.142;8.724;2023-05-10T13:13:07;16.90;99.90
19892;DHT22;10108;50.142;8.724;2023-05-10T13:15:34;16.90;99.90
19892;DHT22;10108;50.142;8.724;2023-05-10T13:18:00;17.00;99.90
19892;DHT22;10108;50.142;8.724;2023-05-10T13:20:26;17.00;99.90
19892;DHT22;10108;50.142;8.724;2023-05-10T13:22:53;17.10;99.90
19892;DHT22;10108;50.142;8.724;2023-05-10T13:25:19;17.00;99.90
19892;DHT22;10108;50.142;8.724;2023-05-10T13:27:45;17.10;99.90
19892;DHT22;10108;50.142;8.724;2023-05-10T13:30:12;17.10;99.90
19892;DHT22;10108;50.142;8.724;2023-05-10T13:32:38;17.10;99.90
19892;DHT22;10108;50.142;8.724;2023-05-10T13:35:05;17.20;99.90
19892;DHT22;10108;50.142;8.724;2023-05-10T13:37:31;17.20;99.90
19892;DHT22;10108;50.142;8.724;2023-05-10T13:39:58;17.20;99.90
19892;DHT22;10108;50.142;8.724;2023-05-10T13:42:24;17.30;99.90
19892;DHT22;10108;50.142;8.724;2023-05-10T13:44:50;17.20;99.90
19892;DHT22;10108;50.142;8.724;2023-05-10T13:47:17;17.20;99.90
19892;DHT22;10108;50.142;8.724;2023-05-10T13:49:43;17.20;99.90
19892;DHT22;10108;50.142;8.724;2023-05-10T13:52:09;17.30;99.90
19892;DHT22;10108;50.142;8.724;2023-05-10T13:54:36;17.30;99.90
19892;DHT22;10108;50.142;8.724;2023-05-10T13:57:04;17.30;99.90
19892;DHT22;10108;50.142;8.724;2023-05-10T13:59:30;17.30;99.90
19892;DHT22;10108;50.142;8.724;2023-05-10T14:02:00;17.30;99.90
19892;DHT22;10108;50.142;8.724;2023-05-10T14:04:28;17.30;99.90
19892;DHT22;10108;50.142;8.724;2023-05-10T14:06:55;17.50;99.90
19892;DHT22;10108;50.142;8.724;2023-05-10T14:09:21;17.50;99.90
19892;DHT22;10108;50.142;8.724;2023-05-10T14:11:47;17.50;99.90
19892;DHT22;10108;50.142;8.724;2023-05-10T14:14:13;17.50;99.90
19892;DHT22;10108;50.142;8.724;2023-05-10T14:16:45;17.60;99.90
19892;DHT22;10108;50.142;8.724;2023-05-10T14:19:12;17.60;99.90
19892;DHT22;10108;50.142;8.724;2023-05-10T14:21:38;17.60;99.90
19892;DHT22;10108;50.142;8.724;2023-05-10T14:24:04;17.60;99.90
19892;DHT22;10108;50.142;8.724;2023-05-10T14:26:31;17.60;99.90
19892;DHT22;10108;50.142;8.724;2023-05-10T14:28:57;17.50;99.90
19892;DHT22;10108;50.142;8.724;2023-05-10T14:31:23;17.60;99.90
19892;DHT22;10108;50.142;8.724;2023-05-10T14:33:51;17.50;99.90
19892;DHT22;10108;50.142;8.724;2023-05-10T14:36:18;17.50;99.90
19892;DHT22;10108;50.142;8.724;2023-05-10T14:38:44;17.50;99.90
19892;DHT22;10108;50.142;8.724;2023-05-10T14:41:10;17.50;99.90
19892;DHT22;10108;50.142;8.724;2023-05-10T14:43:40;17.50;99.90
19892;DHT22;10108;50.142;8.724;2023-05-10T14:46:07;17.50;99.90
19892;DHT22;10108;50.142;8.724;2023-05-10T14:48:33;17.50;99.90
19892;DHT22;10108;50.142;8.724;2023-05-10T14:50:59;17.50;99.90
19892;DHT22;10108;50.142;8.724;2023-05-10T14:53:25;17.50;99.90
19892;DHT22;10108;50.142;8.724;2023-05-10T14:55:51;17.50;99.90
19892;DHT22;10108;50.142;8.724;2023-05-10T14:58:18;17.50;99.90
19892;DHT22;10108;50.142;8.724;2023-05-10T15:00:44;17.50;99.90
19892;DHT22;10108;50.142;8.724;2023-05-10T15:03:10;17.50;99.90
19892;DHT22;10108;50.142;8.724;2023-05-10T15:05:36;17.50;99.90
19892;DHT22;10108;50.142;8.724;2023-05-10T15:08:03;17.50;99.90
19892;DHT22;10108;50.142;8.724;2023-05-10T15:10:30;17.40;99.90
19892;DHT22;10108;50.142;8.724;2023-05-10T15:12:58;17.40;99.90
19892;DHT22;10108;50.142;8.724;2023-05-10T15:15:24;17.40;99.90
19892;DHT22;10108;50.142;8.724;2023-05-10T15:17:50;17.40;99.90
19892;DHT22;10108;50.142;8.724;2023-05-10T15:20:17;17.40;99.90
19892;DHT22;10108;50.142;8.724;2023-05-10T15:22:43;17.40;99.90
19892;DHT22;10108;50.142;8.724;2023-05-10T15:25:09;17.40;99.90
19892;DHT22;10108;50.142;8.724;2023-05-10T15:27:35;17.40;99.90
19892;DHT22;10108;50.142;8.724;2023-05-10T15:30:01;17.40;99.90
19892;DHT22;10108;50.142;8.724;2023-05-10T15:32:28;17.40;99.90
19892;DHT22;10108;50.142;8.724;2023-05-10T15:34:55;17.40;99.90
19892;DHT22;10108;50.142;8.724;2023-05-10T15:37:21;17.30;99.90
19892;DHT22;10108;50.142;8.724;2023-05-10T15:39:49;17.30;99.90
19892;DHT22;10108;50.142;8.724;2023-05-10T15:42:15;17.40;99.90
19892;DHT22;10108;50.142;8.724;2023-05-10T15:44:41;17.40;99.90
19892;DHT22;10108;50.142;8.724;2023-05-10T15:47:09;17.40;99.90
19892;DHT22;10108;50.142;8.724;2023-05-10T15:49:36;17.40;99.90
19892;DHT22;10108;50.142;8.724;2023-05-10T15:52:02;17.30;99.90
19892;DHT22;10108;50.142;8.724;2023-05-10T15:54:28;17.40;99.90
19892;DHT22;10108;50.142;8.724;2023-05-10T15:56:54;17.40;99.90
19892;DHT22;10108;50.142;8.724;2023-05-10T15:59:20;17.40;99.90
19892;DHT22;10108;50.142;8.724;2023-05-10T16:01:46;17.30;99.90
19892;DHT22;10108;50.142;8.724;2023-05-10T16:04:13;17.30;99.90
19892;DHT22;10108;50.142;8.724;2023-05-10T16:06:39;17.30;99.90
19892;DHT22;10108;50.142;8.724;2023-05-10T16:09:05;17.30;99.90
19892;DHT22;10108;50.142;8.724;2023-05-10T16:11:32;17.20;99.90
19892;DHT22;10108;50.142;8.724;2023-05-10T16:13:58;17.20;99.90
19892;DHT22;10108;50.142;8.724;2023-05-10T16:16:24;17.20;99.90
19892;DHT22;10108;50.142;8.724;2023-05-10T16:18:51;17.20;99.90
19892;DHT22;10108;50.142;8.724;2023-05-10T16:21:17;17.10;99.90
19892;DHT22;10108;50.142;8.724;2023-05-10T16:23:44;17.10;99.90
19892;DHT22;10108;50.142;8.724;2023-05-10T16:26:11;17.00;99.90
19892;DHT22;10108;50.142;8.724;2023-05-10T16:28:37;17.00;99.90